sensor_id;sensor_type;location;lat;lon;timestamp;temperature;humidity
63537;DHT22;49686;51.880;5.632;2023-05-24T00:00:33;5.20;99.90
63537;DHT22;49686;51.880;5.632;2023-05-24T00:03:09;5.20;99.90
63537;DHT22;49686;51.880;5.632;2023-05-24T00:05:38;5.20;99.90
63537;DHT22;49686;51.880;5.632;2023-05-24T00:08:05;5.20;99.90
63537;DHT22;49686;51.880;5.632;2023-05-24T00:10:32;5.10;99.90
63537;DHT22;49686;51.880;5.632;2023-05-24T00:12:58;5.10;99.90
63537;DHT22;49686;51.880;5.632;2023-05-24T00:15:25;5.10;99.90
63537;DHT22;49686;51.880;5.632;2023-05-24T00:17:52;5.10;99.90
63537;DHT22;49686;51.880;5.632;2023-05-24T00:20:19;5.00;99.90
63537;DHT22;49686;51.880;5.632;2023-05-24T00:22:52;5.00;99.90
63537;DHT22;49686;51.880;5.632;2023-05-24T00:25:19;4.90;99.90
63537;DHT22;49686;51.880;5.632;2023-05-24T00:27:47;4.80;99.90
63537;DHT22;49686;51.880;5.632;2023-05-24T00:30:14;4.80;99.90
63537;DHT22;49686;51.880;5.632;2023-05-24T00:32:41;4.80;99.90
63537;DHT22;49686;51.880;5.632;2023-05-24T00:35:08;4.70;99.90
63537;DHT22;49686;51.880;5.632;2023-05-24T00:37:35;4.70;99.90
63537;DHT22;49686;51.880;5.632;2023-05-24T00:40:04;4.70;99.90
63537;DHT22;49686;51.880;5.632;2023-05-24T00:42:31;4.70;99.90
63537;DHT22;49686;51.880;5.632;2023-05-24T00:45:00;4.60;99.90
63537;DHT22;49686;51.880;5.632;2023-05-24T00:47:29;4.50;99.90
63537;DHT22;49686;51.880;5.632;2023-05-24T00:49:56;4.50;99.90
63537;DHT22;49686;51.880;5.632;2023-05-24T00:52:23;4.40;99.90
63537;DHT22;49686;51.880;5.632;2023-05-24T00:54:50;4.40;99.90
63537;DHT22;49686;51.880;5.632;2023-05-24T00:57:21;4.50;99.90
63537;DHT22;49686;51.880;5.632;2023-05-24T00:59:48;4.60;99.90
63537;DHT22;49686;51.880;5.632;2023-05-24T01:02:15;4.60;99.90
63537;DHT22;49686;51.880;5.632;2023-05-24T01:04:44;4.60;99.90
63537;DHT22;49686;51.880;5.632;2023-05-24T01:07:16;4.50;99.90
63537;DHT22;49686;51.880;5.632;2023-05-24T01:09:52;4.40;99.90
63537;DHT22;49686;51.880;5.632;2023-05-24T01:12:26;4.40;99.90
63537;DHT22;49686;51.880;5.632;2023-05-24T01:15:06;4.40;99.90
63537;DHT22;49686;51.880;5.632;2023-05-24T01:17:41;4.30;99.90
63537;DHT22;49686;51.880;5.632;2023-05-24T01:20:12;4.30;99.90
63537;DHT22;49686;51.880;5.632;2023-05-24T01:26:02;4.20;99.90
63537;DHT22;49686;51.880;5.632;2023-05-24T01:28:35;4.30;99.90
63537;DHT22;49686;51.880;5.632;2023-05-24T01:31:03;4.30;99.90
63537;DHT22;49686;51.880;5.632;2023-05-24T01:33:40;4.20;99.90
63537;DHT22;49686;51.880;5.632;2023-05-24T01:36:07;4.10;99.90
63537;DHT22;49686;51.880;5.632;2023-05-24T01:38:37;4.00;99.90
63537;DHT22;49686;51.880;5.632;2023-05-24T01:41:09;4.00;99.90
63537;DHT22;49686;51.880;5.632;2023-05-24T01:43:47;3.90;99.90
63537;DHT22;49686;51.880;5.632;2023-05-24T01:46:27;3.90;99.90
63537;DHT22;49686;51.880;5.632;2023-05-24T01:49:01;3.90;99.90
63537;DHT22;49686;51.880;5.632;2023-05-24T01:51:33;3.80;99.90
63537;DHT22;49686;51.880;5.632;2023-05-24T01:54:03;3.80;99.90
63537;DHT22;49686;51.880;5.632;2023-05-24T01:56:35;3.80;99.90
63537;DHT22;49686;51.880;5.632;2023-05-24T01:59:05;3.80;99.90
63537;DHT22;49686;51.880;5.632;2023-05-24T02:01:32;3.80;99.90
63537;DHT22;49686;51.880;5.632;2023-05-24T02:04:00;3.80;99.90
63537;DHT22;49686;51.880;5.632;2023-05-24T02:06:28;3.80;99.90
63537;DHT22;49686;51.880;5.632;2023-05-24T02:08:54;3.80;99.90
63537;DHT22;49686;51.880;5.632;2023-05-24T02:11:21;3.80;99.90
63537;DHT22;49686;51.880;5.632;2023-05-24T02:13:48;3.80;99.90
63537;DHT22;49686;51.880;5.632;2023-05-24T02:16:16;3.80;99.90
63537;DHT22;49686;51.880;5.632;2023-05-24T02:18:43;3.80;99.90
63537;DHT22;49686;51.880;5.632;2023-05-24T02:21:10;3.90;99.90
63537;DHT22;49686;51.880;5.632;2023-05-24T02:23:37;3.90;99.90
63537;DHT22;49686;51.880;5.632;2023-05-24T02:26:04;4.00;99.90
63537;DHT22;49686;51.880;5.632;2023-05-24T02:28:30;4.00;99.90
63537;DHT22;49686;51.880;5.632;2023-05-24T02:30:57;3.90;99.90
63537;DHT22;49686;51.880;5.632;2023-05-24T02:33:28;4.00;99.90
63537;DHT22;49686;51.880;5.632;2023-05-24T02:35:57;4.00;99.90
63537;DHT22;49686;51.880;5.632;2023-05-24T02:38:24;4.00;99.90
63537;DHT22;49686;51.880;5.632;2023-05-24T02:40:50;4.00;99.90
63537;DHT22;49686;51.880;5.632;2023-05-24T02:43:17;4.10;99.90
63537;DHT22;49686;51.880;5.632;2023-05-24T02:45:44;4.10;99.90
63537;DHT22;49686;51.880;5.632;2023-05-24T02:48:11;4.10;99.90
63537;DHT22;49686;51.880;5.632;2023-05-24T02:50:41;4.10;99.90
63537;DHT22;49686;51.880;5.632;2023-05-24T02:53:08;4.20;99.90
63537;DHT22;49686;51.880;5.632;2023-05-24T02:55:34;4.20;99.90
63537;DHT22;49686;51.880;5.632;2023-05-24T02:58:07;4.20;99.90
63537;DHT22;49686;51.880;5.632;2023-05-24T03:00:36;4.20;99.90
63537;DHT22;49686;51.880;5.632;2023-05-24T03:03:03;4.20;99.90
63537;DHT22;49686;51.880;5.632;2023-05-24T03:05:32;4.10;99.90
63537;DHT22;49686;51.880;5.632;2023-05-24T03:08:02;4.20;99.90
63537;DHT22;49686;51.880;5.632;2023-05-24T03:10:32;4.20;99.90
63537;DHT22;49686;51.880;5.632;2023-05-24T03:12:59;4.20;99.90
63537;DHT22;49686;51.880;5.632;2023-05-24T03:15:25;4.10;99.90
63537;DHT22;49686;51.880;5.632;2023-05-24T03:17:55;4.00;99.90
63537;DHT22;49686;51.880;5.632;2023-05-24T03:20:22;4.00;99.90
63537;DHT22;49686;51.880;5.632;2023-05-24T03:22:48;4.00;99.90
63537;DHT22;49686;51.880;5.632;2023-05-24T03:25:17;3.90;99.90
63537;DHT22;49686;51.880;5.632;2023-05-24T03:27:43;3.90;99.90
63537;DHT22;49686;51.880;5.632;2023-05-24T03:30:11;4.00;99.90
63537;DHT22;49686;51.880;5.632;2023-05-24T03:32:38;4.10;99.90
63537;DHT22;49686;51.880;5.632;2023-05-24T03:35:08;4.10;99.90
63537;DHT22;49686;51.880;5.632;2023-05-24T03:37:35;4.10;99.90
63537;DHT22;49686;51.880;5.632;2023-05-24T03:40:02;4.20;99.90
63537;DHT22;49686;51.880;5.632;2023-05-24T03:42:37;4.20;99.90
63537;DHT22;49686;51.880;5.632;2023-05-24T03:45:04;4.20;99.90
63537;DHT22;49686;51.880;5.632;2023-05-24T03:47:31;4.30;99.90
63537;DHT22;49686;51.880;5.632;2023-05-24T03:50:06;4.40;99.90
63537;DHT22;49686;51.880;5.632;2023-05-24T03:52:35;4.30;99.90
63537;DHT22;49686;51.880;5.632;2023-05-24T03:55:02;4.40;99.90
63537;DHT22;49686;51.880;5.632;2023-05-24T03:57:30;4.40;99.90
63537;DHT22;49686;51.880;5.632;2023-05-24T03:59:57;4.40;99.90
63537;DHT22;49686;51.880;5.632;2023-05-24T04:02:24;4.50;99.90
63537;DHT22;49686;51.880;5.632;2023-05-24T04:04:53;4.50;99.90
63537;DHT22;49686;51.880;5.632;2023-05-24T04:07:20;4.60;99.90
63537;DHT22;49686;51.880;5.632;2023-05-24T04:09:47;4.60;99.90
63537;DHT22;49686;51.880;5.632;2023-05-24T04:12:13;4.70;99.90
63537;DHT22;49686;51.880;5.632;2023-05-24T04:14:42;4.80;99.90
63537;DHT22;49686;51.880;5.632;2023-05-24T04:17:09;4.80;99.90
63537;DHT22;49686;51.880;5.632;2023-05-24T04:19:36;4.90;99.90
63537;DHT22;49686;51.880;5.632;2023-05-24T04:22:02;5.00;99.90
63537;DHT22;49686;51.880;5.632;2023-05-24T04:24:29;5.10;99.90
63537;DHT22;49686;51.880;5.632;2023-05-24T04:26:56;5.60;99.90
63537;DHT22;49686;51.880;5.632;2023-05-24T04:29:23;6.20;99.90
63537;DHT22;49686;51.880;5.632;2023-05-24T04:31:52;6.90;99.90
63537;DHT22;49686;51.880;5.632;2023-05-24T04:34:19;7.60;99.90
63537;DHT22;49686;51.880;5.632;2023-05-24T04:36:45;8.10;99.90
63537;DHT22;49686;51.880;5.632;2023-05-24T04:39:12;8.80;99.90
63537;DHT22;49686;51.880;5.632;2023-05-24T04:41:41;9.30;99.90
63537;DHT22;49686;51.880;5.632;2023-05-24T04:44:08;9.70;99.90
63537;DHT22;49686;51.880;5.632;2023-05-24T04:46:34;9.90;99.90
63537;DHT22;49686;51.880;5.632;2023-05-24T04:49:03;10.30;99.90
63537;DHT22;49686;51.880;5.632;2023-05-24T04:51:30;10.90;99.90
63537;DHT22;49686;51.880;5.632;2023-05-24T04:56:28;11.60;99.90
63537;DHT22;49686;51.880;5.632;2023-05-24T04:58:54;12.10;99.90
63537;DHT22;49686;51.880;5.632;2023-05-24T05:01:21;12.30;99.90
63537;DHT22;49686;51.880;5.632;2023-05-24T05:03:57;12.60;99.90
63537;DHT22;49686;51.880;5.632;2023-05-24T05:06:24;12.70;99.90
63537;DHT22;49686;51.880;5.632;2023-05-24T05:08:51;12.60;99.90
63537;DHT22;49686;51.880;5.632;2023-05-24T05:11:20;12.70;99.90
63537;DHT22;49686;51.880;5.632;2023-05-24T05:13:48;13.10;99.90
63537;DHT22;49686;51.880;5.632;2023-05-24T05:16:15;13.20;99.90
63537;DHT22;49686;51.880;5.632;2023-05-24T05:18:42;13.50;99.90
63537;DHT22;49686;51.880;5.632;2023-05-24T05:21:11;13.50;99.90
63537;DHT22;49686;51.880;5.632;2023-05-24T05:23:38;13.90;99.90
63537;DHT22;49686;51.880;5.632;2023-05-24T05:26:05;14.40;99.90
63537;DHT22;49686;51.880;5.632;2023-05-24T05:28:35;14.00;99.90
63537;DHT22;49686;51.880;5.632;2023-05-24T05:31:06;14.30;99.90
63537;DHT22;49686;51.880;5.632;2023-05-24T05:33:33;14.50;99.90
63537;DHT22;49686;51.880;5.632;2023-05-24T05:36:00;14.30;99.90
63537;DHT22;49686;51.880;5.632;2023-05-24T05:38:29;14.60;99.90
63537;DHT22;49686;51.880;5.632;2023-05-24T05:40:56;14.40;99.90
63537;DHT22;49686;51.880;5.632;2023-05-24T05:43:23;14.50;99.90
63537;DHT22;49686;51.880;5.632;2023-05-24T05:45:50;15.20;99.90
63537;DHT22;49686;51.880;5.632;2023-05-24T05:48:18;15.50;99.90
63537;DHT22;49686;51.880;5.632;2023-05-24T05:50:45;15.10;99.90
63537;DHT22;49686;51.880;5.632;2023-05-24T05:53:12;14.80;99.90
63537;DHT22;49686;51.880;5.632;2023-05-24T05:55:38;15.30;99.90
63537;DHT22;49686;51.880;5.632;2023-05-24T05:58:05;15.00;99.90
63537;DHT22;49686;51.880;5.632;2023-05-24T06:00:32;15.00;99.90
63537;DHT22;49686;51.880;5.632;2023-05-24T06:02:59;14.60;99.90
63537;DHT22;49686;51.880;5.632;2023-05-24T06:05:27;14.20;99.90
63537;DHT22;49686;51.880;5.632;2023-05-24T06:07:54;14.70;99.90
63537;DHT22;49686;51.880;5.632;2023-05-24T06:10:21;15.20;99.90
63537;DHT22;49686;51.880;5.632;2023-05-24T06:12:50;15.90;99.90
63537;DHT22;49686;51.880;5.632;2023-05-24T06:15:17;15.60;99.90
63537;DHT22;49686;51.880;5.632;2023-05-24T06:17:44;15.90;99.90
63537;DHT22;49686;51.880;5.632;2023-05-24T06:20:11;15.80;99.90
63537;DHT22;49686;51.880;5.632;2023-05-24T06:22:41;16.00;99.90
63537;DHT22;49686;51.880;5.632;2023-05-24T06:25:08;16.10;99.90
63537;DHT22;49686;51.880;5.632;2023-05-24T06:27:37;16.20;99.90
63537;DHT22;49686;51.880;5.632;2023-05-24T06:30:07;16.50;99.90
63537;DHT22;49686;51.880;5.632;2023-05-24T06:32:34;17.00;99.90
63537;DHT22;49686;51.880;5.632;2023-05-24T06:35:01;17.60;99.90
63537;DHT22;49686;51.880;5.632;2023-05-24T06:37:28;17.00;99.90
63537;DHT22;49686;51.880;5.632;2023-05-24T06:39:59;17.80;99.90
63537;DHT22;49686;51.880;5.632;2023-05-24T06:42:28;16.70;99.90
63537;DHT22;49686;51.880;5.632;2023-05-24T06:44:58;16.90;99.90
63537;DHT22;49686;51.880;5.632;2023-05-24T06:47:31;17.00;99.90
63537;DHT22;49686;51.880;5.632;2023-05-24T06:49:59;16.30;99.90
63537;DHT22;49686;51.880;5.632;2023-05-24T06:52:26;15.70;99.90
63537;DHT22;49686;51.880;5.632;2023-05-24T06:54:52;15.50;99.90
63537;DHT22;49686;51.880;5.632;2023-05-24T06:57:23;14.80;99.90
63537;DHT22;49686;51.880;5.632;2023-05-24T06:59:50;13.60;99.90
63537;DHT22;49686;51.880;5.632;2023-05-24T07:02:17;13.20;99.90
63537;DHT22;49686;51.880;5.632;2023-05-24T07:04:44;13.20;99.90
63537;DHT22;49686;51.880;5.632;2023-05-24T07:07:11;12.80;99.90
63537;DHT22;49686;51.880;5.632;2023-05-24T07:09:39;12.40;99.90
63537;DHT22;49686;51.880;5.632;2023-05-24T07:12:06;12.20;99.90
63537;DHT22;49686;51.880;5.632;2023-05-24T07:14:36;12.00;99.90
63537;DHT22;49686;51.880;5.632;2023-05-24T07:17:06;11.80;99.90
63537;DHT22;49686;51.880;5.632;2023-05-24T07:19:33;11.70;99.90
63537;DHT22;49686;51.880;5.632;2023-05-24T07:22:00;11.70;99.90
63537;DHT22;49686;51.880;5.632;2023-05-24T07:24:27;11.60;99.90
63537;DHT22;49686;51.880;5.632;2023-05-24T07:26:54;11.60;99.90
63537;DHT22;49686;51.880;5.632;2023-05-24T07:29:21;11.60;99.90
63537;DHT22;49686;51.880;5.632;2023-05-24T07:31:49;12.00;99.90
63537;DHT22;49686;51.880;5.632;2023-05-24T07:34:17;11.80;99.90
63537;DHT22;49686;51.880;5.632;2023-05-24T07:36:46;11.80;99.90
63537;DHT22;49686;51.880;5.632;2023-05-24T07:39:13;11.90;99.90
63537;DHT22;49686;51.880;5.632;2023-05-24T07:41:40;12.60;99.90
63537;DHT22;49686;51.880;5.632;2023-05-24T07:44:06;13.00;99.90
63537;DHT22;49686;51.880;5.632;2023-05-24T07:46:33;12.80;99.90
63537;DHT22;49686;51.880;5.632;2023-05-24T07:49:02;13.70;99.90
63537;DHT22;49686;51.880;5.632;2023-05-24T07:51:31;13.80;99.90
63537;DHT22;49686;51.880;5.632;2023-05-24T07:53:58;13.80;99.90
63537;DHT22;49686;51.880;5.632;2023-05-24T07:56:25;14.50;99.90
63537;DHT22;49686;51.880;5.632;2023-05-24T07:58:52;14.50;99.90
63537;DHT22;49686;51.880;5.632;2023-05-24T08:01:18;14.10;99.90
63537;DHT22;49686;51.880;5.632;2023-05-24T08:03:45;13.20;99.90
63537;DHT22;49686;51.880;5.632;2023-05-24T08:06:14;12.60;99.90
63537;DHT22;49686;51.880;5.632;2023-05-24T08:08:41;12.00;99.90
63537;DHT22;49686;51.880;5.632;2023-05-24T08:11:07;11.80;99.90
63537;DHT22;49686;51.880;5.632;2023-05-24T08:13:34;11.70;99.90
63537;DHT22;49686;51.880;5.632;2023-05-24T08:16:04;11.90;99.90
63537;DHT22;49686;51.880;5.632;2023-05-24T08:18:31;12.30;99.90
63537;DHT22;49686;51.880;5.632;2023-05-24T08:20:58;13.10;99.90
63537;DHT22;49686;51.880;5.632;2023-05-24T08:23:26;13.60;99.90
63537;DHT22;49686;51.880;5.632;2023-05-24T08:25:56;14.50;99.90
63537;DHT22;49686;51.880;5.632;2023-05-24T08:28:23;15.10;99.90
63537;DHT22;49686;51.880;5.632;2023-05-24T08:30:50;15.20;99.90
63537;DHT22;49686;51.880;5.632;2023-05-24T08:33:16;15.60;99.90
63537;DHT22;49686;51.880;5.632;2023-05-24T08:35:43;16.10;99.90
63537;DHT22;49686;51.880;5.632;2023-05-24T08:38:10;16.40;99.90
63537;DHT22;49686;51.880;5.632;2023-05-24T08:40:42;15.90;99.90
63537;DHT22;49686;51.880;5.632;2023-05-24T08:43:09;16.70;99.90
63537;DHT22;49686;51.880;5.632;2023-05-24T08:45:37;17.40;99.90
63537;DHT22;49686;51.880;5.632;2023-05-24T08:48:05;17.30;99.90
63537;DHT22;49686;51.880;5.632;2023-05-24T08:50:33;16.50;99.90
63537;DHT22;49686;51.880;5.632;2023-05-24T08:53:05;16.10;99.90
63537;DHT22;49686;51.880;5.632;2023-05-24T08:55:35;15.50;99.90
63537;DHT22;49686;51.880;5.632;2023-05-24T08:58:05;15.70;99.90
63537;DHT22;49686;51.880;5.632;2023-05-24T09:00:35;15.60;99.90
63537;DHT22;49686;51.880;5.632;2023-05-24T09:03:02;15.40;99.90
63537;DHT22;49686;51.880;5.632;2023-05-24T09:05:31;15.20;99.90
63537;DHT22;49686;51.880;5.632;2023-05-24T09:08:04;14.80;99.90
63537;DHT22;49686;51.880;5.632;2023-05-24T09:10:32;15.10;99.90
63537;DHT22;49686;51.880;5.632;2023-05-24T09:13:22;15.60;99.90
63537;DHT22;49686;51.880;5.632;2023-05-24T09:15:51;15.20;99.90
63537;DHT22;49686;51.880;5.632;2023-05-24T09:18:18;14.40;99.90
63537;DHT22;49686;51.880;5.632;2023-05-24T09:20:45;14.10;99.90
63537;DHT22;49686;51.880;5.632;2023-05-24T09:23:13;13.90;99.90
63537;DHT22;49686;51.880;5.632;2023-05-24T09:25:43;14.00;99.90
63537;DHT22;49686;51.880;5.632;2023-05-24T09:28:15;14.00;99.90
63537;DHT22;49686;51.880;5.632;2023-05-24T09:30:45;14.00;99.90
63537;DHT22;49686;51.880;5.632;2023-05-24T09:33:12;14.10;99.90
63537;DHT22;49686;51.880;5.632;2023-05-24T09:35:41;13.80;99.90
63537;DHT22;49686;51.880;5.632;2023-05-24T09:38:15;13.50;99.90
63537;DHT22;49686;51.880;5.632;2023-05-24T09:40:42;13.30;99.90
63537;DHT22;49686;51.880;5.632;2023-05-24T09:43:10;13.00;99.90
63537;DHT22;49686;51.880;5.632;2023-05-24T09:45:40;12.90;99.90
63537;DHT22;49686;51.880;5.632;2023-05-24T09:48:11;12.90;99.90
63537;DHT22;49686;51.880;5.632;2023-05-24T09:50:38;12.90;99.90
63537;DHT22;49686;51.880;5.632;2023-05-24T09:53:08;12.70;99.90
63537;DHT22;49686;51.880;5.632;2023-05-24T09:55:35;12.70;99.90
63537;DHT22;49686;51.880;5.632;2023-05-24T09:58:03;12.50;99.90
63537;DHT22;49686;51.880;5.632;2023-05-24T10:00:32;12.40;99.90
63537;DHT22;49686;51.880;5.632;2023-05-24T10:03:00;12.20;99.90
63537;DHT22;49686;51.880;5.632;2023-05-24T10:05:28;12.30;99.90
63537;DHT22;49686;51.880;5.632;2023-05-24T10:07:56;12.30;99.90
63537;DHT22;49686;51.880;5.632;2023-05-24T10:10:26;12.40;99.90
63537;DHT22;49686;51.880;5.632;2023-05-24T10:12:54;12.50;99.90
63537;DHT22;49686;51.880;5.632;2023-05-24T10:15:21;12.40;99.90
63537;DHT22;49686;51.880;5.632;2023-05-24T10:17:48;12.50;99.90
63537;DHT22;49686;51.880;5.632;2023-05-24T10:20:17;12.70;99.90
63537;DHT22;49686;51.880;5.632;2023-05-24T10:22:47;12.80;99.90
63537;DHT22;49686;51.880;5.632;2023-05-24T10:25:20;12.90;99.90
63537;DHT22;49686;51.880;5.632;2023-05-24T10:27:51;13.00;99.90
63537;DHT22;49686;51.880;5.632;2023-05-24T10:30:24;13.00;99.90
63537;DHT22;49686;51.880;5.632;2023-05-24T10:32:53;12.80;99.90
63537;DHT22;49686;51.880;5.632;2023-05-24T10:35:21;12.80;99.90
63537;DHT22;49686;51.880;5.632;2023-05-24T10:37:50;12.70;99.90
63537;DHT22;49686;51.880;5.632;2023-05-24T10:40:17;12.70;99.90
63537;DHT22;49686;51.880;5.632;2023-05-24T10:42:47;12.80;99.90
63537;DHT22;49686;51.880;5.632;2023-05-24T10:45:36;13.00;99.90
63537;DHT22;49686;51.880;5.632;2023-05-24T10:48:32;13.20;99.90
63537;DHT22;49686;51.880;5.632;2023-05-24T10:51:00;13.30;99.90
63537;DHT22;49686;51.880;5.632;2023-05-24T10:53:28;13.40;99.90
63537;DHT22;49686;51.880;5.632;2023-05-24T10:56:07;13.70;99.90
63537;DHT22;49686;51.880;5.632;2023-05-24T10:58:43;13.70;99.90
63537;DHT22;49686;51.880;5.632;2023-05-24T11:01:12;13.60;99.90
63537;DHT22;49686;51.880;5.632;2023-05-24T11:03:40;13.80;99.90
63537;DHT22;49686;51.880;5.632;2023-05-24T11:06:10;14.00;99.90
63537;DHT22;49686;51.880;5.632;2023-05-24T11:08:42;13.90;99.90
63537;DHT22;49686;51.880;5.632;2023-05-24T11:11:10;14.10;99.90
63537;DHT22;49686;51.880;5.632;2023-05-24T11:13:40;14.10;99.90
63537;DHT22;49686;51.880;5.632;2023-05-24T11:16:07;14.20;99.90
63537;DHT22;49686;51.880;5.632;2023-05-24T11:18:35;14.10;99.90
63537;DHT22;49686;51.880;5.632;2023-05-24T11:21:05;14.30;99.90
63537;DHT22;49686;51.880;5.632;2023-05-24T11:23:37;14.10;99.90
63537;DHT22;49686;51.880;5.632;2023-05-24T11:26:07;13.90;99.90
63537;DHT22;49686;51.880;5.632;2023-05-24T11:28:37;13.70;99.90
63537;DHT22;49686;51.880;5.632;2023-05-24T11:31:07;13.70;99.90
63537;DHT22;49686;51.880;5.632;2023-05-24T11:33:34;13.50;99.90
63537;DHT22;49686;51.880;5.632;2023-05-24T11:36:06;13.60;99.90
63537;DHT22;49686;51.880;5.632;2023-05-24T11:38:38;13.70;99.90
63537;DHT22;49686;51.880;5.632;2023-05-24T11:41:07;13.80;99.90
63537;DHT22;49686;51.880;5.632;2023-05-24T11:43:34;14.00;99.90
63537;DHT22;49686;51.880;5.632;2023-05-24T11:46:01;14.30;99.90
63537;DHT22;49686;51.880;5.632;2023-05-24T11:48:30;14.80;99.90
63537;DHT22;49686;51.880;5.632;2023-05-24T11:50:57;15.00;99.90
63537;DHT22;49686;51.880;5.632;2023-05-24T11:53:25;15.00;99.90
63537;DHT22;49686;51.880;5.632;2023-05-24T11:55:52;15.00;99.90
63537;DHT22;49686;51.880;5.632;2023-05-24T11:58:24;14.80;99.90
63537;DHT22;49686;51.880;5.632;2023-05-24T12:00:55;14.40;99.90
63537;DHT22;49686;51.880;5.632;2023-05-24T12:03:25;14.00;99.90
63537;DHT22;49686;51.880;5.632;2023-05-24T12:05:56;13.50;99.90
63537;DHT22;49686;51.880;5.632;2023-05-24T12:08:25;13.30;99.90
63537;DHT22;49686;51.880;5.632;2023-05-24T12:10:51;13.30;99.90
63537;DHT22;49686;51.880;5.632;2023-05-24T12:13:20;13.30;99.90
63537;DHT22;49686;51.880;5.632;2023-05-24T12:15:50;13.40;99.90
63537;DHT22;49686;51.880;5.632;2023-05-24T12:18:22;13.70;99.90
63537;DHT22;49686;51.880;5.632;2023-05-24T12:20:49;13.80;99.90
63537;DHT22;49686;51.880;5.632;2023-05-24T12:23:22;13.90;99.90
63537;DHT22;49686;51.880;5.632;2023-05-24T12:25:49;14.00;99.90
63537;DHT22;49686;51.880;5.632;2023-05-24T12:28:19;14.30;99.90
63537;DHT22;49686;51.880;5.632;2023-05-24T12:30:52;14.50;99.90
63537;DHT22;49686;51.880;5.632;2023-05-24T12:33:20;14.90;99.90
63537;DHT22;49686;51.880;5.632;2023-05-24T12:35:47;14.80;99.90
63537;DHT22;49686;51.880;5.632;2023-05-24T12:38:17;14.20;99.90
63537;DHT22;49686;51.880;5.632;2023-05-24T12:40:48;14.20;99.90
63537;DHT22;49686;51.880;5.632;2023-05-24T12:43:34;14.70;99.90
63537;DHT22;49686;51.880;5.632;2023-05-24T12:46:04;15.60;99.90
63537;DHT22;49686;51.880;5.632;2023-05-24T12:48:33;16.00;99.90
63537;DHT22;49686;51.880;5.632;2023-05-24T12:51:00;16.20;99.90
63537;DHT22;49686;51.880;5.632;2023-05-24T12:53:27;16.40;99.90
63537;DHT22;49686;51.880;5.632;2023-05-24T12:55:54;16.60;99.90
63537;DHT22;49686;51.880;5.632;2023-05-24T12:58:21;16.30;99.90
63537;DHT22;49686;51.880;5.632;2023-05-24T13:00:49;16.00;99.90
63537;DHT22;49686;51.880;5.632;2023-05-24T13:03:17;16.10;99.90
63537;DHT22;49686;51.880;5.632;2023-05-24T13:05:44;16.00;99.90
63537;DHT22;49686;51.880;5.632;2023-05-24T13:08:12;16.40;99.90
63537;DHT22;49686;51.880;5.632;2023-05-24T13:10:39;16.80;99.90
63537;DHT22;49686;51.880;5.632;2023-05-24T13:13:06;16.90;99.70
63537;DHT22;49686;51.880;5.632;2023-05-24T13:15:33;17.20;99.60
63537;DHT22;49686;51.880;5.632;2023-05-24T13:18:00;17.50;99.50
63537;DHT22;49686;51.880;5.632;2023-05-24T13:20:30;17.30;99.90
63537;DHT22;49686;51.880;5.632;2023-05-24T13:22:57;16.80;99.90
63537;DHT22;49686;51.880;5.632;2023-05-24T13:25:24;16.50;99.90
63537;DHT22;49686;51.880;5.632;2023-05-24T13:27:52;16.40;99.90
63537;DHT22;49686;51.880;5.632;2023-05-24T13:30:25;16.30;99.90
63537;DHT22;49686;51.880;5.632;2023-05-24T13:32:55;16.40;99.40
63537;DHT22;49686;51.880;5.632;2023-05-24T13:35:22;16.30;99.50
63537;DHT22;49686;51.880;5.632;2023-05-24T13:37:53;16.10;99.90
63537;DHT22;49686;51.880;5.632;2023-05-24T13:40:20;16.00;99.90
63537;DHT22;49686;51.880;5.632;2023-05-24T13:42:50;16.10;99.90
63537;DHT22;49686;51.880;5.632;2023-05-24T13:45:17;15.70;99.90
63537;DHT22;49686;51.880;5.632;2023-05-24T13:47:45;15.50;99.90
63537;DHT22;49686;51.880;5.632;2023-05-24T13:50:12;15.10;99.90
63537;DHT22;49686;51.880;5.632;2023-05-24T13:52:42;15.10;99.90
63537;DHT22;49686;51.880;5.632;2023-05-24T13:55:13;14.90;99.90
63537;DHT22;49686;51.880;5.632;2023-05-24T13:57:40;14.70;99.90
63537;DHT22;49686;51.880;5.632;2023-05-24T14:00:18;14.50;99.90
63537;DHT22;49686;51.880;5.632;2023-05-24T14:02:45;14.40;99.90
63537;DHT22;49686;51.880;5.632;2023-05-24T14:05:12;14.20;99.90
63537;DHT22;49686;51.880;5.632;2023-05-24T14:07:53;14.00;99.90
63537;DHT22;49686;51.880;5.632;2023-05-24T14:10:24;13.90;99.90
63537;DHT22;49686;51.880;5.632;2023-05-24T14:12:57;13.90;99.90
63537;DHT22;49686;51.880;5.632;2023-05-24T14:15:44;13.80;99.90
63537;DHT22;49686;51.880;5.632;2023-05-24T14:18:14;14.00;99.90
63537;DHT22;49686;51.880;5.632;2023-05-24T14:20:41;14.20;99.90
63537;DHT22;49686;51.880;5.632;2023-05-24T14:23:08;14.10;99.90
63537;DHT22;49686;51.880;5.632;2023-05-24T14:25:39;14.10;99.90
63537;DHT22;49686;51.880;5.632;2023-05-24T14:28:07;14.10;99.90
63537;DHT22;49686;51.880;5.632;2023-05-24T14:30:38;14.20;99.90
63537;DHT22;49686;51.880;5.632;2023-05-24T14:33:05;14.10;99.90
63537;DHT22;49686;51.880;5.632;2023-05-24T14:35:32;14.00;99.90
63537;DHT22;49686;51.880;5.632;2023-05-24T14:38:02;14.00;99.90
63537;DHT22;49686;51.880;5.632;2023-05-24T14:40:29;14.10;99.90
63537;DHT22;49686;51.880;5.632;2023-05-24T14:42:57;14.20;99.90
63537;DHT22;49686;51.880;5.632;2023-05-24T14:45:25;14.10;99.90
63537;DHT22;49686;51.880;5.632;2023-05-24T14:47:52;13.80;99.90
63537;DHT22;49686;51.880;5.632;2023-05-24T14:50:19;13.80;99.90
63537;DHT22;49686;51.880;5.632;2023-05-24T14:52:49;13.80;99.90
63537;DHT22;49686;51.880;5.632;2023-05-24T14:55:21;13.60;99.90
63537;DHT22;49686;51.880;5.632;2023-05-24T14:57:48;13.50;99.90
63537;DHT22;49686;51.880;5.632;2023-05-24T15:00:20;13.40;99.90
63537;DHT22;49686;51.880;5.632;2023-05-24T15:02:52;13.40;99.90
63537;DHT22;49686;51.880;5.632;2023-05-24T15:05:24;13.40;99.90
63537;DHT22;49686;51.880;5.632;2023-05-24T15:07:54;13.40;99.90
63537;DHT22;49686;51.880;5.632;2023-05-24T15:10:21;13.40;99.90
63537;DHT22;49686;51.880;5.632;2023-05-24T15:12:47;13.50;99.90
63537;DHT22;49686;51.880;5.632;2023-05-24T15:15:14;13.70;99.90
63537;DHT22;49686;51.880;5.632;2023-05-24T15:17:42;13.70;99.90
63537;DHT22;49686;51.880;5.632;2023-05-24T15:20:13;13.70;99.90
63537;DHT22;49686;51.880;5.632;2023-05-24T15:22:42;13.70;99.90
63537;DHT22;49686;51.880;5.632;2023-05-24T15:25:09;13.60;99.90
63537;DHT22;49686;51.880;5.632;2023-05-24T15:27:36;13.70;99.90
63537;DHT22;49686;51.880;5.632;2023-05-24T15:30:06;13.80;99.90
63537;DHT22;49686;51.880;5.632;2023-05-24T15:32:33;13.80;99.90
63537;DHT22;49686;51.880;5.632;2023-05-24T15:35:01;13.70;99.90
63537;DHT22;49686;51.880;5.632;2023-05-24T15:37:29;13.60;99.90
63537;DHT22;49686;51.880;5.632;2023-05-24T15:39:56;13.50;99.90
63537;DHT22;49686;51.880;5.632;2023-05-24T15:42:24;13.60;99.90
63537;DHT22;49686;51.880;5.632;2023-05-24T15:44:51;13.60;99.90
63537;DHT22;49686;51.880;5.632;2023-05-24T15:47:19;13.60;99.90
63537;DHT22;49686;51.880;5.632;2023-05-24T15:49:48;13.60;99.90